EGBB Airport Information

Runway Information
Runway 15 Length 8527 ft width 151 ft
Elevation 305 ft Threshold 1069 ft Heading 148
Runway 33 Length 8527 ft Width 151 ft
Elevation 328 ft Threshold 987 ft Heading 328
Airport Frequencies
Type APP Name APP Frequency 118.05 MHZ
Type ATIS Name ATIS Frequency 136.02 MHZ
Type GND Name GND Frequency 121.8 MHZ
Type TWR Name TWR Frequency 118.3 MHZ
Airport Navaids
Type NDB Name Birmingham Frequency 406 KHZ
Airport Weather Information & NOTAM
ADDS - METARS form results

(0125 UTC 24 May 2019)
Data provider http://aviationweather.gov/metar/data/
 
METAR text: EGBB 240120Z 31004KT CAVOK 12/08 Q1016
Conditions at: EGBB (BIRMINGHAM AIRPO, GB) observed 0120 UTC 24 May 2019
Temperature: 12.0°C (54°F)
Dewpoint: 8.0°C (46°F) [RH = 76%]
Pressure (altimeter): 30.00 inches Hg (1016.0 mb)
Winds: from the NW (310 degrees) at 5 MPH (4 knots; 2.1 m/s)
Visibility: 6 or more miles (10+ km)
Ceiling: ceiling and visibility are OK
Clouds: unknown
Weather: no significant weather observed at this time

METAR text: EGBB 240050Z VRB03KT CAVOK 12/08 Q1016
Conditions at: EGBB (BIRMINGHAM AIRPO, GB) observed 0050 UTC 24 May 2019
Temperature: 12.0°C (54°F)
Dewpoint: 8.0°C (46°F) [RH = 76%]
Pressure (altimeter): 30.00 inches Hg (1016.0 mb)
Winds: variable direction winds at 3 MPH (3 knots; 1.5 m/s)
Visibility: 6 or more miles (10+ km)
Ceiling: ceiling and visibility are OK
Clouds: unknown
Weather: no significant weather observed at this time

Forecast for: EGBB (BIRMINGHAM AIRPO, GB)
Text: TAF EGBB 232253Z 2400/2424 32006KT 9999 FEW035
Forecast period: 0000 UTC 24 May 2019 to 0000 UTC 25 May 2019
Forecast type: FROM: standard forecast or significant change
Winds: from the NW (320 degrees) at 7 MPH (6 knots; 3.1 m/s)
Visibility: 6 or more miles 10+ km)
Ceiling: at least 12,000 feet AGL
Clouds: few clouds at 3500 feet AGL
Weather: no significant weather forecast for this period
Text: PROB40
Forecast period: 1200 to 1900 UTC 24 May 2019
Forecast type: TEMPORARY: The following changes expected for less than half the time period
Visibility: 4 miles (6 km)
Ceiling: unknown
Clouds: missing
Weather: SHRA  (rain showers)